sensor_id;sensor_type;location;lat;lon;timestamp;P1;durP1;ratioP1;P2;durP2;ratioP2
28627;SDS011;15815;46.760;19.604;2022-09-03T00:10:04;4.20;;;3.20;;
28627;SDS011;15815;46.760;19.604;2022-09-03T00:12:37;3.65;;;3.10;;
28627;SDS011;15815;46.760;19.604;2022-09-03T00:15:10;5.40;;;3.60;;
28627;SDS011;15815;46.760;19.604;2022-09-03T00:18:01;4.10;;;3.40;;
28627;SDS011;15815;46.760;19.604;2022-09-03T00:20:49;3.78;;;2.80;;
28627;SDS011;15815;46.760;19.604;2022-09-03T00:23:27;4.35;;;2.70;;
28627;SDS011;15815;46.760;19.604;2022-09-03T00:26:03;3.90;;;3.17;;
28627;SDS011;15815;46.760;19.604;2022-09-03T00:28:46;4.95;;;3.22;;
28627;SDS011;15815;46.760;19.604;2022-09-03T00:33:53;4.50;;;3.33;;
28627;SDS011;15815;46.760;19.604;2022-09-03T00:39:00;3.25;;;2.95;;
28627;SDS011;15815;46.760;19.604;2022-09-03T00:41:32;4.57;;;3.00;;
28627;SDS011;15815;46.760;19.604;2022-09-03T00:46:48;4.60;;;3.40;;
28627;SDS011;15815;46.760;19.604;2022-09-03T00:57:28;2.95;;;2.60;;
28627;SDS011;15815;46.760;19.604;2022-09-03T01:08:27;3.85;;;3.17;;
28627;SDS011;15815;46.760;19.604;2022-09-03T01:20:11;4.30;;;3.13;;
28627;SDS011;15815;46.760;19.604;2022-09-03T01:22:57;4.90;;;3.30;;
28627;SDS011;15815;46.760;19.604;2022-09-03T01:31:15;3.40;;;3.10;;
28627;SDS011;15815;46.760;19.604;2022-09-03T01:34:33;4.20;;;3.35;;
28627;SDS011;15815;46.760;19.604;2022-09-03T01:37:01;3.30;;;3.00;;
28627;SDS011;15815;46.760;19.604;2022-09-03T01:45:18;4.70;;;3.40;;
28627;SDS011;15815;46.760;19.604;2022-09-03T01:56:16;4.13;;;3.30;;
28627;SDS011;15815;46.760;19.604;2022-09-03T01:59:01;8.73;;;3.45;;
28627;SDS011;15815;46.760;19.604;2022-09-03T02:01:51;6.88;;;3.63;;
28627;SDS011;15815;46.760;19.604;2022-09-03T02:04:22;5.68;;;4.05;;
28627;SDS011;15815;46.760;19.604;2022-09-03T02:06:49;4.22;;;2.97;;
28627;SDS011;15815;46.760;19.604;2022-09-03T02:09:16;3.95;;;3.10;;
28627;SDS011;15815;46.760;19.604;2022-09-03T02:11:43;5.40;;;3.50;;
28627;SDS011;15815;46.760;19.604;2022-09-03T02:14:11;4.57;;;3.67;;
28627;SDS011;15815;46.760;19.604;2022-09-03T02:16:37;5.32;;;4.18;;
28627;SDS011;15815;46.760;19.604;2022-09-03T02:19:04;4.72;;;3.38;;
28627;SDS011;15815;46.760;19.604;2022-09-03T02:21:37;5.43;;;3.38;;
28627;SDS011;15815;46.760;19.604;2022-09-03T02:24:05;7.25;;;3.60;;
28627;SDS011;15815;46.760;19.604;2022-09-03T02:26:32;5.60;;;3.47;;
28627;SDS011;15815;46.760;19.604;2022-09-03T02:28:58;4.57;;;3.60;;
28627;SDS011;15815;46.760;19.604;2022-09-03T02:31:26;4.57;;;3.75;;
28627;SDS011;15815;46.760;19.604;2022-09-03T02:33:52;5.57;;;3.28;;
28627;SDS011;15815;46.760;19.604;2022-09-03T02:36:18;4.07;;;3.47;;
28627;SDS011;15815;46.760;19.604;2022-09-03T02:38:48;6.03;;;3.60;;
28627;SDS011;15815;46.760;19.604;2022-09-03T02:41:13;7.20;;;4.03;;
28627;SDS011;15815;46.760;19.604;2022-09-03T02:46:11;4.88;;;3.60;;
28627;SDS011;15815;46.760;19.604;2022-09-03T02:48:41;6.55;;;3.65;;
28627;SDS011;15815;46.760;19.604;2022-09-03T02:51:06;5.35;;;3.70;;
28627;SDS011;15815;46.760;19.604;2022-09-03T02:53:31;5.85;;;3.50;;
28627;SDS011;15815;46.760;19.604;2022-09-03T02:55:57;5.13;;;3.42;;
28627;SDS011;15815;46.760;19.604;2022-09-03T02:58:24;8.63;;;3.72;;
28627;SDS011;15815;46.760;19.604;2022-09-03T03:00:50;4.22;;;3.50;;
28627;SDS011;15815;46.760;19.604;2022-09-03T03:03:16;5.47;;;3.50;;
28627;SDS011;15815;46.760;19.604;2022-09-03T03:05:46;5.20;;;3.63;;
28627;SDS011;15815;46.760;19.604;2022-09-03T03:08:14;6.95;;;4.20;;
28627;SDS011;15815;46.760;19.604;2022-09-03T03:10:41;3.97;;;3.22;;
28627;SDS011;15815;46.760;19.604;2022-09-03T03:13:10;3.83;;;3.25;;
28627;SDS011;15815;46.760;19.604;2022-09-03T03:15:36;6.53;;;3.85;;
28627;SDS011;15815;46.760;19.604;2022-09-03T03:18:01;5.90;;;3.53;;
28627;SDS011;15815;46.760;19.604;2022-09-03T03:20:27;4.85;;;3.65;;
28627;SDS011;15815;46.760;19.604;2022-09-03T03:22:53;6.72;;;3.85;;
28627;SDS011;15815;46.760;19.604;2022-09-03T03:25:19;4.97;;;3.65;;
28627;SDS011;15815;46.760;19.604;2022-09-03T03:27:45;4.53;;;3.63;;
28627;SDS011;15815;46.760;19.604;2022-09-03T03:30:10;6.75;;;3.70;;
28627;SDS011;15815;46.760;19.604;2022-09-03T03:32:36;5.85;;;4.38;;
28627;SDS011;15815;46.760;19.604;2022-09-03T03:35:02;5.97;;;3.78;;
28627;SDS011;15815;46.760;19.604;2022-09-03T03:37:29;5.65;;;3.63;;
28627;SDS011;15815;46.760;19.604;2022-09-03T03:39:55;4.25;;;3.85;;
28627;SDS011;15815;46.760;19.604;2022-09-03T03:42:21;5.22;;;3.30;;
28627;SDS011;15815;46.760;19.604;2022-09-03T03:44:46;6.60;;;4.45;;
28627;SDS011;15815;46.760;19.604;2022-09-03T03:47:11;5.97;;;4.05;;
28627;SDS011;15815;46.760;19.604;2022-09-03T03:49:37;10.23;;;3.33;;
28627;SDS011;15815;46.760;19.604;2022-09-03T03:52:03;5.88;;;3.92;;
28627;SDS011;15815;46.760;19.604;2022-09-03T03:54:28;5.20;;;4.05;;
28627;SDS011;15815;46.760;19.604;2022-09-03T03:56:54;5.55;;;3.47;;
28627;SDS011;15815;46.760;19.604;2022-09-03T03:59:20;4.47;;;3.42;;
28627;SDS011;15815;46.760;19.604;2022-09-03T04:01:45;6.40;;;3.30;;
28627;SDS011;15815;46.760;19.604;2022-09-03T04:04:12;4.13;;;3.10;;
28627;SDS011;15815;46.760;19.604;2022-09-03T04:06:38;4.80;;;3.15;;
28627;SDS011;15815;46.760;19.604;2022-09-03T04:09:03;7.60;;;3.80;;
28627;SDS011;15815;46.760;19.604;2022-09-03T04:11:29;5.45;;;3.40;;
28627;SDS011;15815;46.760;19.604;2022-09-03T04:13:54;5.60;;;3.42;;
28627;SDS011;15815;46.760;19.604;2022-09-03T04:16:28;4.88;;;3.67;;
28627;SDS011;15815;46.760;19.604;2022-09-03T04:18:54;8.82;;;3.30;;
28627;SDS011;15815;46.760;19.604;2022-09-03T04:21:21;6.00;;;3.55;;
28627;SDS011;15815;46.760;19.604;2022-09-03T04:23:48;7.22;;;3.25;;
28627;SDS011;15815;46.760;19.604;2022-09-03T04:26:16;5.03;;;2.72;;
28627;SDS011;15815;46.760;19.604;2022-09-03T04:28:44;8.02;;;3.60;;
28627;SDS011;15815;46.760;19.604;2022-09-03T04:31:10;6.05;;;3.78;;
28627;SDS011;15815;46.760;19.604;2022-09-03T04:33:36;5.38;;;3.83;;
28627;SDS011;15815;46.760;19.604;2022-09-03T04:38:31;6.68;;;3.97;;
28627;SDS011;15815;46.760;19.604;2022-09-03T04:40:58;7.00;;;3.92;;
28627;SDS011;15815;46.760;19.604;2022-09-03T04:43:24;7.55;;;4.05;;
28627;SDS011;15815;46.760;19.604;2022-09-03T04:45:50;6.35;;;4.47;;
28627;SDS011;15815;46.760;19.604;2022-09-03T04:48:15;6.45;;;3.70;;
28627;SDS011;15815;46.760;19.604;2022-09-03T04:50:41;6.43;;;4.20;;
28627;SDS011;15815;46.760;19.604;2022-09-03T04:53:06;7.32;;;4.10;;
28627;SDS011;15815;46.760;19.604;2022-09-03T04:55:35;8.30;;;4.07;;
28627;SDS011;15815;46.760;19.604;2022-09-03T04:58:02;7.25;;;4.40;;
28627;SDS011;15815;46.760;19.604;2022-09-03T05:00:28;9.80;;;4.43;;
28627;SDS011;15815;46.760;19.604;2022-09-03T05:02:53;11.32;;;5.70;;
28627;SDS011;15815;46.760;19.604;2022-09-03T05:05:19;6.95;;;4.50;;
28627;SDS011;15815;46.760;19.604;2022-09-03T05:07:44;6.38;;;4.20;;
28627;SDS011;15815;46.760;19.604;2022-09-03T05:10:10;4.25;;;3.72;;
28627;SDS011;15815;46.760;19.604;2022-09-03T05:12:40;6.35;;;4.75;;
28627;SDS011;15815;46.760;19.604;2022-09-03T05:15:05;3.92;;;3.40;;
28627;SDS011;15815;46.760;19.604;2022-09-03T05:17:32;5.32;;;3.25;;
28627;SDS011;15815;46.760;19.604;2022-09-03T05:19:57;4.70;;;3.75;;
28627;SDS011;15815;46.760;19.604;2022-09-03T05:22:22;5.20;;;4.07;;
28627;SDS011;15815;46.760;19.604;2022-09-03T05:24:48;4.82;;;3.65;;
28627;SDS011;15815;46.760;19.604;2022-09-03T05:27:14;7.28;;;3.88;;
28627;SDS011;15815;46.760;19.604;2022-09-03T05:29:43;6.03;;;3.55;;
28627;SDS011;15815;46.760;19.604;2022-09-03T05:32:10;6.70;;;3.47;;
28627;SDS011;15815;46.760;19.604;2022-09-03T05:34:37;6.47;;;3.72;;
28627;SDS011;15815;46.760;19.604;2022-09-03T05:37:03;4.10;;;3.50;;
28627;SDS011;15815;46.760;19.604;2022-09-03T05:39:28;6.00;;;3.22;;
28627;SDS011;15815;46.760;19.604;2022-09-03T05:41:53;4.22;;;3.05;;
28627;SDS011;15815;46.760;19.604;2022-09-03T05:44:19;4.25;;;3.15;;
28627;SDS011;15815;46.760;19.604;2022-09-03T05:46:47;4.88;;;2.83;;
28627;SDS011;15815;46.760;19.604;2022-09-03T05:49:14;6.35;;;2.75;;
28627;SDS011;15815;46.760;19.604;2022-09-03T05:51:39;5.55;;;2.95;;
28627;SDS011;15815;46.760;19.604;2022-09-03T05:54:05;3.33;;;3.03;;
28627;SDS011;15815;46.760;19.604;2022-09-03T05:56:32;3.72;;;3.33;;
28627;SDS011;15815;46.760;19.604;2022-09-03T05:59:00;7.18;;;3.22;;
28627;SDS011;15815;46.760;19.604;2022-09-03T06:01:30;3.70;;;3.33;;
28627;SDS011;15815;46.760;19.604;2022-09-03T06:03:58;5.90;;;3.58;;
28627;SDS011;15815;46.760;19.604;2022-09-03T06:06:24;5.50;;;3.75;;
28627;SDS011;15815;46.760;19.604;2022-09-03T06:08:51;4.60;;;3.25;;
28627;SDS011;15815;46.760;19.604;2022-09-03T06:11:19;10.65;;;3.55;;
28627;SDS011;15815;46.760;19.604;2022-09-03T06:13:45;4.97;;;3.55;;
28627;SDS011;15815;46.760;19.604;2022-09-03T06:16:11;4.65;;;3.70;;
28627;SDS011;15815;46.760;19.604;2022-09-03T06:18:37;4.75;;;3.85;;
28627;SDS011;15815;46.760;19.604;2022-09-03T06:21:04;6.40;;;3.50;;
28627;SDS011;15815;46.760;19.604;2022-09-03T06:23:31;5.72;;;3.28;;
28627;SDS011;15815;46.760;19.604;2022-09-03T06:26:01;6.10;;;3.58;;
28627;SDS011;15815;46.760;19.604;2022-09-03T06:28:26;5.53;;;3.15;;
28627;SDS011;15815;46.760;19.604;2022-09-03T06:30:52;4.82;;;3.28;;
28627;SDS011;15815;46.760;19.604;2022-09-03T06:33:18;6.53;;;3.42;;
28627;SDS011;15815;46.760;19.604;2022-09-03T06:35:43;2.83;;;2.40;;
28627;SDS011;15815;46.760;19.604;2022-09-03T06:38:10;8.95;;;2.95;;
28627;SDS011;15815;46.760;19.604;2022-09-03T06:40:36;6.47;;;2.53;;
28627;SDS011;15815;46.760;19.604;2022-09-03T06:43:01;4.22;;;2.25;;
28627;SDS011;15815;46.760;19.604;2022-09-03T06:45:28;3.08;;;2.03;;
28627;SDS011;15815;46.760;19.604;2022-09-03T06:47:54;5.15;;;2.40;;
28627;SDS011;15815;46.760;19.604;2022-09-03T06:50:20;18.67;;;2.47;;
28627;SDS011;15815;46.760;19.604;2022-09-03T06:55:30;3.22;;;1.92;;
28627;SDS011;15815;46.760;19.604;2022-09-03T06:57:55;3.30;;;1.98;;
28627;SDS011;15815;46.760;19.604;2022-09-03T07:00:21;3.60;;;2.60;;
28627;SDS011;15815;46.760;19.604;2022-09-03T07:02:47;5.47;;;2.15;;
28627;SDS011;15815;46.760;19.604;2022-09-03T07:05:12;3.03;;;1.98;;
28627;SDS011;15815;46.760;19.604;2022-09-03T07:07:38;3.53;;;2.05;;
28627;SDS011;15815;46.760;19.604;2022-09-03T07:10:03;2.63;;;2.30;;
28627;SDS011;15815;46.760;19.604;2022-09-03T07:12:29;4.10;;;1.95;;
28627;SDS011;15815;46.760;19.604;2022-09-03T07:15:00;5.18;;;2.25;;
28627;SDS011;15815;46.760;19.604;2022-09-03T07:17:26;4.15;;;2.28;;
28627;SDS011;15815;46.760;19.604;2022-09-03T07:19:51;4.43;;;2.23;;
28627;SDS011;15815;46.760;19.604;2022-09-03T07:22:17;2.90;;;2.00;;
28627;SDS011;15815;46.760;19.604;2022-09-03T07:24:42;5.17;;;2.20;;
28627;SDS011;15815;46.760;19.604;2022-09-03T07:27:10;2.78;;;2.28;;
28627;SDS011;15815;46.760;19.604;2022-09-03T07:29:36;2.88;;;2.10;;
28627;SDS011;15815;46.760;19.604;2022-09-03T07:32:02;4.63;;;2.27;;
28627;SDS011;15815;46.760;19.604;2022-09-03T07:34:27;4.40;;;2.22;;
28627;SDS011;15815;46.760;19.604;2022-09-03T07:36:53;7.83;;;2.50;;
28627;SDS011;15815;46.760;19.604;2022-09-03T07:39:18;3.88;;;2.20;;
28627;SDS011;15815;46.760;19.604;2022-09-03T07:41:44;4.35;;;2.40;;
28627;SDS011;15815;46.760;19.604;2022-09-03T07:44:13;6.63;;;2.30;;
28627;SDS011;15815;46.760;19.604;2022-09-03T07:46:43;4.20;;;2.40;;
28627;SDS011;15815;46.760;19.604;2022-09-03T07:49:10;4.43;;;3.13;;
28627;SDS011;15815;46.760;19.604;2022-09-03T07:51:36;5.15;;;2.88;;
28627;SDS011;15815;46.760;19.604;2022-09-03T07:54:03;3.28;;;2.28;;
28627;SDS011;15815;46.760;19.604;2022-09-03T07:56:31;3.90;;;2.25;;
28627;SDS011;15815;46.760;19.604;2022-09-03T07:58:59;4.82;;;2.90;;
28627;SDS011;15815;46.760;19.604;2022-09-03T08:01:25;4.82;;;3.03;;
28627;SDS011;15815;46.760;19.604;2022-09-03T08:03:53;4.57;;;3.00;;
28627;SDS011;15815;46.760;19.604;2022-09-03T08:06:20;5.72;;;2.42;;
28627;SDS011;15815;46.760;19.604;2022-09-03T08:08:47;6.13;;;2.65;;
28627;SDS011;15815;46.760;19.604;2022-09-03T08:11:13;5.65;;;3.17;;
28627;SDS011;15815;46.760;19.604;2022-09-03T08:13:47;7.00;;;2.90;;
28627;SDS011;15815;46.760;19.604;2022-09-03T08:16:17;3.92;;;2.88;;
28627;SDS011;15815;46.760;19.604;2022-09-03T08:18:43;5.72;;;3.08;;
28627;SDS011;15815;46.760;19.604;2022-09-03T08:21:09;5.60;;;3.17;;
28627;SDS011;15815;46.760;19.604;2022-09-03T08:23:41;10.20;;;3.55;;
28627;SDS011;15815;46.760;19.604;2022-09-03T08:26:09;5.43;;;2.78;;
28627;SDS011;15815;46.760;19.604;2022-09-03T08:28:35;6.03;;;3.00;;
28627;SDS011;15815;46.760;19.604;2022-09-03T08:33:37;4.28;;;2.83;;
28627;SDS011;15815;46.760;19.604;2022-09-03T08:36:06;5.60;;;3.03;;
28627;SDS011;15815;46.760;19.604;2022-09-03T08:38:33;9.75;;;3.30;;
28627;SDS011;15815;46.760;19.604;2022-09-03T08:41:09;5.97;;;2.45;;
28627;SDS011;15815;46.760;19.604;2022-09-03T08:46:58;8.95;;;2.90;;
28627;SDS011;15815;46.760;19.604;2022-09-03T08:49:36;4.80;;;2.88;;
28627;SDS011;15815;46.760;19.604;2022-09-03T08:52:39;5.00;;;2.95;;
28627;SDS011;15815;46.760;19.604;2022-09-03T08:55:15;11.32;;;2.97;;
28627;SDS011;15815;46.760;19.604;2022-09-03T08:57:42;9.32;;;3.17;;
28627;SDS011;15815;46.760;19.604;2022-09-03T09:00:12;5.97;;;3.20;;
28627;SDS011;15815;46.760;19.604;2022-09-03T09:02:42;6.28;;;3.15;;
28627;SDS011;15815;46.760;19.604;2022-09-03T09:05:24;5.75;;;3.20;;
28627;SDS011;15815;46.760;19.604;2022-09-03T09:10:47;7.78;;;2.80;;
28627;SDS011;15815;46.760;19.604;2022-09-03T09:16:08;6.15;;;2.90;;
28627;SDS011;15815;46.760;19.604;2022-09-03T09:19:02;5.85;;;2.58;;
28627;SDS011;15815;46.760;19.604;2022-09-03T09:21:38;7.22;;;3.47;;
28627;SDS011;15815;46.760;19.604;2022-09-03T09:24:12;4.82;;;2.85;;
28627;SDS011;15815;46.760;19.604;2022-09-03T09:26:45;7.00;;;3.17;;
28627;SDS011;15815;46.760;19.604;2022-09-03T09:29:12;7.97;;;2.80;;
28627;SDS011;15815;46.760;19.604;2022-09-03T09:31:39;4.93;;;2.72;;
28627;SDS011;15815;46.760;19.604;2022-09-03T09:34:08;9.30;;;2.97;;
28627;SDS011;15815;46.760;19.604;2022-09-03T09:36:47;4.22;;;2.70;;
28627;SDS011;15815;46.760;19.604;2022-09-03T09:39:15;6.68;;;2.90;;
28627;SDS011;15815;46.760;19.604;2022-09-03T09:41:40;3.25;;;2.25;;
28627;SDS011;15815;46.760;19.604;2022-09-03T09:44:07;5.30;;;2.85;;
28627;SDS011;15815;46.760;19.604;2022-09-03T09:46:43;4.35;;;2.92;;
28627;SDS011;15815;46.760;19.604;2022-09-03T09:52:02;4.25;;;2.72;;
28627;SDS011;15815;46.760;19.604;2022-09-03T09:54:32;7.43;;;2.45;;
28627;SDS011;15815;46.760;19.604;2022-09-03T09:56:58;7.07;;;2.47;;
28627;SDS011;15815;46.760;19.604;2022-09-03T09:59:26;6.22;;;2.53;;
28627;SDS011;15815;46.760;19.604;2022-09-03T10:02:01;5.25;;;2.75;;
28627;SDS011;15815;46.760;19.604;2022-09-03T10:04:35;4.60;;;3.15;;
28627;SDS011;15815;46.760;19.604;2022-09-03T10:09:56;4.50;;;2.50;;
28627;SDS011;15815;46.760;19.604;2022-09-03T10:12:50;4.63;;;2.58;;
28627;SDS011;15815;46.760;19.604;2022-09-03T10:21:09;5.32;;;2.40;;
28627;SDS011;15815;46.760;19.604;2022-09-03T10:23:29;5.50;;;2.55;;
28627;SDS011;15815;46.760;19.604;2022-09-03T10:26:08;5.65;;;2.53;;
28627;SDS011;15815;46.760;19.604;2022-09-03T10:28:39;5.82;;;2.10;;
28627;SDS011;15815;46.760;19.604;2022-09-03T10:31:23;5.80;;;2.15;;
28627;SDS011;15815;46.760;19.604;2022-09-03T10:36:24;4.40;;;2.45;;
28627;SDS011;15815;46.760;19.604;2022-09-03T10:39:14;9.45;;;3.00;;
28627;SDS011;15815;46.760;19.604;2022-09-03T10:44:50;3.47;;;2.58;;
28627;SDS011;15815;46.760;19.604;2022-09-03T10:53:03;7.82;;;2.97;;
28627;SDS011;15815;46.760;19.604;2022-09-03T10:55:43;4.43;;;2.65;;
28627;SDS011;15815;46.760;19.604;2022-09-03T11:00:53;3.78;;;2.63;;
28627;SDS011;15815;46.760;19.604;2022-09-03T11:03:33;5.75;;;2.42;;
28627;SDS011;15815;46.760;19.604;2022-09-03T11:11:32;5.57;;;2.42;;
28627;SDS011;15815;46.760;19.604;2022-09-03T11:14:10;4.55;;;2.47;;
28627;SDS011;15815;46.760;19.604;2022-09-03T11:19:10;5.70;;;2.42;;
28627;SDS011;15815;46.760;19.604;2022-09-03T11:21:39;5.53;;;2.58;;
28627;SDS011;15815;46.760;19.604;2022-09-03T11:24:11;5.47;;;2.67;;
28627;SDS011;15815;46.760;19.604;2022-09-03T11:26:49;4.00;;;2.40;;
28627;SDS011;15815;46.760;19.604;2022-09-03T11:30:05;4.72;;;2.30;;
28627;SDS011;15815;46.760;19.604;2022-09-03T11:32:20;2.22;;;2.00;;
28627;SDS011;15815;46.760;19.604;2022-09-03T11:34:51;5.83;;;2.23;;
28627;SDS011;15815;46.760;19.604;2022-09-03T11:37:22;2.90;;;2.15;;
28627;SDS011;15815;46.760;19.604;2022-09-03T11:39:53;4.28;;;2.40;;
28627;SDS011;15815;46.760;19.604;2022-09-03T11:42:32;6.10;;;2.50;;
28627;SDS011;15815;46.760;19.604;2022-09-03T11:47:47;6.03;;;2.30;;
28627;SDS011;15815;46.760;19.604;2022-09-03T11:50:18;4.78;;;2.38;;
28627;SDS011;15815;46.760;19.604;2022-09-03T11:52:44;4.53;;;2.53;;
28627;SDS011;15815;46.760;19.604;2022-09-03T11:55:11;4.75;;;2.58;;
28627;SDS011;15815;46.760;19.604;2022-09-03T11:57:48;4.97;;;2.50;;
28627;SDS011;15815;46.760;19.604;2022-09-03T12:00:15;5.00;;;2.55;;
28627;SDS011;15815;46.760;19.604;2022-09-03T12:02:49;3.65;;;2.47;;
28627;SDS011;15815;46.760;19.604;2022-09-03T12:05:26;4.10;;;2.58;;
28627;SDS011;15815;46.760;19.604;2022-09-03T12:07:59;3.28;;;2.50;;
28627;SDS011;15815;46.760;19.604;2022-09-03T12:13:56;5.05;;;2.67;;
28627;SDS011;15815;46.760;19.604;2022-09-03T12:16:39;5.03;;;2.70;;
28627;SDS011;15815;46.760;19.604;2022-09-03T12:19:48;5.63;;;2.70;;
28627;SDS011;15815;46.760;19.604;2022-09-03T12:22:13;8.32;;;3.17;;
28627;SDS011;15815;46.760;19.604;2022-09-03T12:24:39;5.70;;;2.35;;
28627;SDS011;15815;46.760;19.604;2022-09-03T12:27:07;7.03;;;2.50;;
28627;SDS011;15815;46.760;19.604;2022-09-03T12:29:36;4.03;;;2.83;;
28627;SDS011;15815;46.760;19.604;2022-09-03T12:32:05;5.65;;;2.97;;
28627;SDS011;15815;46.760;19.604;2022-09-03T12:34:33;6.55;;;2.70;;
28627;SDS011;15815;46.760;19.604;2022-09-03T12:36:59;7.93;;;2.63;;
28627;SDS011;15815;46.760;19.604;2022-09-03T12:39:24;4.88;;;2.50;;
28627;SDS011;15815;46.760;19.604;2022-09-03T12:44:29;6.90;;;2.60;;
28627;SDS011;15815;46.760;19.604;2022-09-03T12:47:12;4.20;;;2.15;;
28627;SDS011;15815;46.760;19.604;2022-09-03T12:49:40;4.95;;;2.58;;
28627;SDS011;15815;46.760;19.604;2022-09-03T12:52:20;3.50;;;2.08;;
28627;SDS011;15815;46.760;19.604;2022-09-03T12:54:53;3.95;;;2.45;;
28627;SDS011;15815;46.760;19.604;2022-09-03T12:57:21;6.88;;;2.38;;
28627;SDS011;15815;46.760;19.604;2022-09-03T12:59:50;7.15;;;3.03;;
28627;SDS011;15815;46.760;19.604;2022-09-03T13:02:28;4.80;;;2.70;;
28627;SDS011;15815;46.760;19.604;2022-09-03T13:05:02;6.82;;;3.13;;
28627;SDS011;15815;46.760;19.604;2022-09-03T13:07:33;6.68;;;3.30;;
28627;SDS011;15815;46.760;19.604;2022-09-03T13:10:03;5.20;;;2.90;;
28627;SDS011;15815;46.760;19.604;2022-09-03T13:12:33;4.85;;;2.70;;
28627;SDS011;15815;46.760;19.604;2022-09-03T13:15:08;5.40;;;2.88;;
28627;SDS011;15815;46.760;19.604;2022-09-03T13:20:38;3.97;;;2.92;;
28627;SDS011;15815;46.760;19.604;2022-09-03T13:32:24;6.10;;;2.63;;
28627;SDS011;15815;46.760;19.604;2022-09-03T13:35:03;4.85;;;3.13;;
28627;SDS011;15815;46.760;19.604;2022-09-03T13:42:40;10.02;;;2.72;;
28627;SDS011;15815;46.760;19.604;2022-09-03T13:45:27;4.03;;;2.53;;
28627;SDS011;15815;46.760;19.604;2022-09-03T13:48:01;6.43;;;2.90;;
28627;SDS011;15815;46.760;19.604;2022-09-03T13:54:13;7.43;;;3.10;;
28627;SDS011;15815;46.760;19.604;2022-09-03T13:56:53;5.68;;;3.00;;
28627;SDS011;15815;46.760;19.604;2022-09-03T13:59:39;7.85;;;2.80;;
28627;SDS011;15815;46.760;19.604;2022-09-03T14:05:02;3.22;;;2.50;;
28627;SDS011;15815;46.760;19.604;2022-09-03T14:15:51;5.80;;;2.60;;
28627;SDS011;15815;46.760;19.604;2022-09-03T14:18:35;6.10;;;2.58;;
28627;SDS011;15815;46.760;19.604;2022-09-03T14:21:10;4.80;;;3.13;;
28627;SDS011;15815;46.760;19.604;2022-09-03T14:26:34;6.95;;;2.60;;
28627;SDS011;15815;46.760;19.604;2022-09-03T14:29:35;6.53;;;2.60;;
28627;SDS011;15815;46.760;19.604;2022-09-03T14:35:14;4.78;;;2.60;;
28627;SDS011;15815;46.760;19.604;2022-09-03T14:37:48;4.53;;;2.38;;
28627;SDS011;15815;46.760;19.604;2022-09-03T14:40:17;7.32;;;3.33;;
28627;SDS011;15815;46.760;19.604;2022-09-03T14:42:53;10.07;;;3.90;;
28627;SDS011;15815;46.760;19.604;2022-09-03T14:45:33;5.95;;;2.80;;
28627;SDS011;15815;46.760;19.604;2022-09-03T15:01:42;6.55;;;2.58;;
28627;SDS011;15815;46.760;19.604;2022-09-03T15:10:00;3.33;;;2.35;;
28627;SDS011;15815;46.760;19.604;2022-09-03T15:12:34;4.53;;;2.53;;
28627;SDS011;15815;46.760;19.604;2022-09-03T15:15:12;3.80;;;2.30;;
28627;SDS011;15815;46.760;19.604;2022-09-03T15:18:02;4.65;;;2.70;;
28627;SDS011;15815;46.760;19.604;2022-09-03T15:21:01;6.15;;;3.10;;
28627;SDS011;15815;46.760;19.604;2022-09-03T15:23:52;5.43;;;2.88;;
28627;SDS011;15815;46.760;19.604;2022-09-03T15:29:15;5.03;;;2.65;;
28627;SDS011;15815;46.760;19.604;2022-09-03T15:32:01;4.65;;;2.28;;
28627;SDS011;15815;46.760;19.604;2022-09-03T15:37:27;2.67;;;2.15;;
28627;SDS011;15815;46.760;19.604;2022-09-03T15:40:00;8.02;;;2.40;;
28627;SDS011;15815;46.760;19.604;2022-09-03T15:42:30;3.78;;;2.33;;
28627;SDS011;15815;46.760;19.604;2022-09-03T15:45:05;5.03;;;2.35;;
28627;SDS011;15815;46.760;19.604;2022-09-03T15:50:33;3.17;;;2.17;;
28627;SDS011;15815;46.760;19.604;2022-09-03T15:55:30;3.30;;;2.10;;
28627;SDS011;15815;46.760;19.604;2022-09-03T16:00:38;4.40;;;2.33;;
28627;SDS011;15815;46.760;19.604;2022-09-03T16:03:14;6.13;;;2.58;;
28627;SDS011;15815;46.760;19.604;2022-09-03T16:13:44;4.63;;;2.10;;
28627;SDS011;15815;46.760;19.604;2022-09-03T16:16:27;2.88;;;2.00;;
28627;SDS011;15815;46.760;19.604;2022-09-03T16:26:54;4.00;;;3.07;;
28627;SDS011;15815;46.760;19.604;2022-09-03T16:29:25;5.10;;;2.40;;
28627;SDS011;15815;46.760;19.604;2022-09-03T16:31:59;5.70;;;2.50;;
28627;SDS011;15815;46.760;19.604;2022-09-03T16:34:36;4.10;;;2.70;;
28627;SDS011;15815;46.760;19.604;2022-09-03T16:42:39;5.28;;;2.70;;
28627;SDS011;15815;46.760;19.604;2022-09-03T17:18:49;6.57;;;3.28;;
28627;SDS011;15815;46.760;19.604;2022-09-03T17:24:31;5.57;;;2.97;;
28627;SDS011;15815;46.760;19.604;2022-09-03T17:37:54;7.55;;;2.85;;
28627;SDS011;15815;46.760;19.604;2022-09-03T17:43:30;3.75;;;2.90;;
28627;SDS011;15815;46.760;19.604;2022-09-03T17:48:51;7.30;;;3.40;;
28627;SDS011;15815;46.760;19.604;2022-09-03T18:02:27;4.70;;;3.25;;
28627;SDS011;15815;46.760;19.604;2022-09-03T18:16:06;7.22;;;4.68;;
28627;SDS011;15815;46.760;19.604;2022-09-03T18:18:37;10.47;;;5.50;;
28627;SDS011;15815;46.760;19.604;2022-09-03T18:21:11;9.65;;;5.40;;
28627;SDS011;15815;46.760;19.604;2022-09-03T18:27:17;11.73;;;9.55;;
28627;SDS011;15815;46.760;19.604;2022-09-03T18:30:10;13.48;;;9.43;;
28627;SDS011;15815;46.760;19.604;2022-09-03T18:32:56;14.00;;;9.85;;
28627;SDS011;15815;46.760;19.604;2022-09-03T18:35:42;12.52;;;8.82;;
28627;SDS011;15815;46.760;19.604;2022-09-03T18:38:29;13.27;;;9.50;;
28627;SDS011;15815;46.760;19.604;2022-09-03T18:41:19;15.15;;;10.35;;
28627;SDS011;15815;46.760;19.604;2022-09-03T18:50:12;13.70;;;9.85;;
28627;SDS011;15815;46.760;19.604;2022-09-03T18:53:07;15.27;;;12.00;;
28627;SDS011;15815;46.760;19.604;2022-09-03T18:56:01;14.13;;;9.35;;
28627;SDS011;15815;46.760;19.604;2022-09-03T19:02:00;13.68;;;8.02;;
28627;SDS011;15815;46.760;19.604;2022-09-03T19:08:01;8.82;;;5.30;;
28627;SDS011;15815;46.760;19.604;2022-09-03T19:11:00;6.53;;;4.88;;
28627;SDS011;15815;46.760;19.604;2022-09-03T19:13:57;7.40;;;4.95;;
28627;SDS011;15815;46.760;19.604;2022-09-03T19:23:04;9.02;;;4.50;;
28627;SDS011;15815;46.760;19.604;2022-09-03T19:25:49;7.22;;;4.70;;
28627;SDS011;15815;46.760;19.604;2022-09-03T19:28:38;7.07;;;4.65;;
28627;SDS011;15815;46.760;19.604;2022-09-03T19:31:39;7.95;;;4.97;;
28627;SDS011;15815;46.760;19.604;2022-09-03T19:47:01;5.78;;;4.65;;
28627;SDS011;15815;46.760;19.604;2022-09-03T19:52:53;9.65;;;4.90;;
28627;SDS011;15815;46.760;19.604;2022-09-03T19:55:43;6.05;;;4.35;;
28627;SDS011;15815;46.760;19.604;2022-09-03T19:58:30;7.18;;;3.97;;
28627;SDS011;15815;46.760;19.604;2022-09-03T20:01:17;7.05;;;4.30;;
28627;SDS011;15815;46.760;19.604;2022-09-03T20:04:09;8.63;;;3.83;;
28627;SDS011;15815;46.760;19.604;2022-09-03T20:06:55;6.95;;;3.70;;
28627;SDS011;15815;46.760;19.604;2022-09-03T20:09:41;6.38;;;4.50;;
28627;SDS011;15815;46.760;19.604;2022-09-03T20:12:27;4.65;;;3.88;;
28627;SDS011;15815;46.760;19.604;2022-09-03T20:14:58;5.43;;;4.22;;
28627;SDS011;15815;46.760;19.604;2022-09-03T20:22:55;7.38;;;4.45;;
28627;SDS011;15815;46.760;19.604;2022-09-03T20:31:01;9.63;;;5.18;;
28627;SDS011;15815;46.760;19.604;2022-09-03T20:36:26;5.75;;;4.68;;
28627;SDS011;15815;46.760;19.604;2022-09-03T20:39:05;8.02;;;5.25;;
28627;SDS011;15815;46.760;19.604;2022-09-03T20:42:02;6.60;;;4.25;;
28627;SDS011;15815;46.760;19.604;2022-09-03T20:44:52;10.52;;;5.53;;
28627;SDS011;15815;46.760;19.604;2022-09-03T20:47:46;11.85;;;5.30;;